sensor_id;sensor_type;location;lat;lon;timestamp;temperature;humidity
38568;DHT22;24338;48.280;10.970;2023-05-07T00:02:16;11.30;99.90
38568;DHT22;24338;48.280;10.970;2023-05-07T00:04:43;11.30;99.90
38568;DHT22;24338;48.280;10.970;2023-05-07T00:07:10;11.30;99.90
38568;DHT22;24338;48.280;10.970;2023-05-07T00:09:37;11.30;99.90
38568;DHT22;24338;48.280;10.970;2023-05-07T00:12:04;11.30;99.90
38568;DHT22;24338;48.280;10.970;2023-05-07T00:14:31;11.30;99.90
38568;DHT22;24338;48.280;10.970;2023-05-07T00:16:58;11.30;99.90
38568;DHT22;24338;48.280;10.970;2023-05-07T00:19:25;11.20;99.90
38568;DHT22;24338;48.280;10.970;2023-05-07T00:21:52;11.20;99.90
38568;DHT22;24338;48.280;10.970;2023-05-07T00:24:20;11.20;99.90
38568;DHT22;24338;48.280;10.970;2023-05-07T00:26:47;11.10;99.90
38568;DHT22;24338;48.280;10.970;2023-05-07T00:29:14;11.20;99.90
38568;DHT22;24338;48.280;10.970;2023-05-07T00:31:41;11.20;99.90
38568;DHT22;24338;48.280;10.970;2023-05-07T00:34:08;11.10;99.90
38568;DHT22;24338;48.280;10.970;2023-05-07T00:36:35;11.10;99.90
38568;DHT22;24338;48.280;10.970;2023-05-07T00:39:02;11.10;99.90
38568;DHT22;24338;48.280;10.970;2023-05-07T00:41:30;11.10;99.90
38568;DHT22;24338;48.280;10.970;2023-05-07T00:43:57;11.00;99.90
38568;DHT22;24338;48.280;10.970;2023-05-07T00:46:24;11.00;99.90
38568;DHT22;24338;48.280;10.970;2023-05-07T00:48:51;11.00;99.90
38568;DHT22;24338;48.280;10.970;2023-05-07T00:51:18;11.00;99.90
38568;DHT22;24338;48.280;10.970;2023-05-07T00:53:46;11.00;99.90
38568;DHT22;24338;48.280;10.970;2023-05-07T00:56:13;10.90;99.90
38568;DHT22;24338;48.280;10.970;2023-05-07T00:58:40;10.90;99.90
38568;DHT22;24338;48.280;10.970;2023-05-07T01:01:07;10.90;99.90
38568;DHT22;24338;48.280;10.970;2023-05-07T01:03:34;10.90;99.90
38568;DHT22;24338;48.280;10.970;2023-05-07T01:06:02;10.90;99.90
38568;DHT22;24338;48.280;10.970;2023-05-07T01:08:31;10.90;99.90
38568;DHT22;24338;48.280;10.970;2023-05-07T01:10:59;10.80;99.90
38568;DHT22;24338;48.280;10.970;2023-05-07T01:13:27;10.80;99.90
38568;DHT22;24338;48.280;10.970;2023-05-07T01:15:54;10.80;99.90
38568;DHT22;24338;48.280;10.970;2023-05-07T01:18:21;10.80;99.90
38568;DHT22;24338;48.280;10.970;2023-05-07T01:20:48;10.80;99.90
38568;DHT22;24338;48.280;10.970;2023-05-07T01:23:15;10.80;99.90
38568;DHT22;24338;48.280;10.970;2023-05-07T01:25:42;10.80;99.90
38568;DHT22;24338;48.280;10.970;2023-05-07T01:28:09;10.80;99.90
38568;DHT22;24338;48.280;10.970;2023-05-07T01:30:45;10.80;99.90
38568;DHT22;24338;48.280;10.970;2023-05-07T01:33:14;10.80;99.90
38568;DHT22;24338;48.280;10.970;2023-05-07T01:35:45;10.90;99.90
38568;DHT22;24338;48.280;10.970;2023-05-07T01:38:13;10.80;99.90
38568;DHT22;24338;48.280;10.970;2023-05-07T01:40:40;10.80;99.90
38568;DHT22;24338;48.280;10.970;2023-05-07T01:43:08;10.80;99.90
38568;DHT22;24338;48.280;10.970;2023-05-07T01:45:36;10.80;99.90
38568;DHT22;24338;48.280;10.970;2023-05-07T01:48:03;10.80;99.90
38568;DHT22;24338;48.280;10.970;2023-05-07T01:50:31;10.80;99.90
38568;DHT22;24338;48.280;10.970;2023-05-07T01:52:58;10.70;99.90
38568;DHT22;24338;48.280;10.970;2023-05-07T01:55:25;10.60;99.90
38568;DHT22;24338;48.280;10.970;2023-05-07T01:57:52;10.60;99.90
38568;DHT22;24338;48.280;10.970;2023-05-07T02:00:19;10.60;99.90
38568;DHT22;24338;48.280;10.970;2023-05-07T02:02:46;10.50;99.90
38568;DHT22;24338;48.280;10.970;2023-05-07T02:05:13;10.50;99.90
38568;DHT22;24338;48.280;10.970;2023-05-07T02:07:40;10.50;99.90
38568;DHT22;24338;48.280;10.970;2023-05-07T02:10:07;10.50;99.90
38568;DHT22;24338;48.280;10.970;2023-05-07T02:12:34;10.50;99.90
38568;DHT22;24338;48.280;10.970;2023-05-07T02:15:02;10.50;99.90
38568;DHT22;24338;48.280;10.970;2023-05-07T02:17:29;10.50;99.90
38568;DHT22;24338;48.280;10.970;2023-05-07T02:19:58;10.50;99.90
38568;DHT22;24338;48.280;10.970;2023-05-07T02:22:26;10.50;99.90
38568;DHT22;24338;48.280;10.970;2023-05-07T02:24:53;10.50;99.90
38568;DHT22;24338;48.280;10.970;2023-05-07T02:27:19;10.50;99.90
38568;DHT22;24338;48.280;10.970;2023-05-07T02:29:46;10.50;99.90
38568;DHT22;24338;48.280;10.970;2023-05-07T02:32:13;10.50;99.90
38568;DHT22;24338;48.280;10.970;2023-05-07T02:34:40;10.50;99.90
38568;DHT22;24338;48.280;10.970;2023-05-07T02:37:07;10.50;99.90
38568;DHT22;24338;48.280;10.970;2023-05-07T02:39:34;10.50;99.90
38568;DHT22;24338;48.280;10.970;2023-05-07T02:42:03;10.50;99.90
38568;DHT22;24338;48.280;10.970;2023-05-07T02:44:30;10.50;99.90
38568;DHT22;24338;48.280;10.970;2023-05-07T02:46:58;10.50;99.90
38568;DHT22;24338;48.280;10.970;2023-05-07T02:49:24;10.50;99.90
38568;DHT22;24338;48.280;10.970;2023-05-07T02:51:51;10.50;99.90
38568;DHT22;24338;48.280;10.970;2023-05-07T02:54:18;10.40;99.90
38568;DHT22;24338;48.280;10.970;2023-05-07T02:56:45;10.50;99.90
38568;DHT22;24338;48.280;10.970;2023-05-07T02:59:11;10.40;99.90
38568;DHT22;24338;48.280;10.970;2023-05-07T03:01:38;10.40;99.90
38568;DHT22;24338;48.280;10.970;2023-05-07T03:04:05;10.40;99.90
38568;DHT22;24338;48.280;10.970;2023-05-07T03:06:32;10.30;99.90
38568;DHT22;24338;48.280;10.970;2023-05-07T03:08:59;10.30;99.90
38568;DHT22;24338;48.280;10.970;2023-05-07T03:11:26;10.30;99.90
38568;DHT22;24338;48.280;10.970;2023-05-07T03:13:53;10.30;99.90
38568;DHT22;24338;48.280;10.970;2023-05-07T03:16:20;10.20;99.90
38568;DHT22;24338;48.280;10.970;2023-05-07T03:18:47;10.20;99.90
38568;DHT22;24338;48.280;10.970;2023-05-07T03:21:14;10.10;99.90
38568;DHT22;24338;48.280;10.970;2023-05-07T03:23:41;10.10;99.90
38568;DHT22;24338;48.280;10.970;2023-05-07T03:26:08;10.10;99.90
38568;DHT22;24338;48.280;10.970;2023-05-07T03:28:34;10.10;99.90
38568;DHT22;24338;48.280;10.970;2023-05-07T03:31:01;10.00;99.90
38568;DHT22;24338;48.280;10.970;2023-05-07T03:33:28;10.00;99.90
38568;DHT22;24338;48.280;10.970;2023-05-07T03:35:55;10.00;99.90
38568;DHT22;24338;48.280;10.970;2023-05-07T03:38:22;10.00;99.90
38568;DHT22;24338;48.280;10.970;2023-05-07T03:40:49;10.00;99.90
38568;DHT22;24338;48.280;10.970;2023-05-07T03:43:16;9.90;99.90
38568;DHT22;24338;48.280;10.970;2023-05-07T03:45:43;10.00;99.90
38568;DHT22;24338;48.280;10.970;2023-05-07T03:48:09;10.00;99.90
38568;DHT22;24338;48.280;10.970;2023-05-07T03:50:37;9.90;99.90
38568;DHT22;24338;48.280;10.970;2023-05-07T03:53:04;9.90;99.90
38568;DHT22;24338;48.280;10.970;2023-05-07T03:55:31;9.90;99.90
38568;DHT22;24338;48.280;10.970;2023-05-07T03:57:58;9.90;99.90
38568;DHT22;24338;48.280;10.970;2023-05-07T04:00:25;9.90;99.90
38568;DHT22;24338;48.280;10.970;2023-05-07T04:02:54;9.90;99.90
38568;DHT22;24338;48.280;10.970;2023-05-07T04:05:21;9.90;99.90
38568;DHT22;24338;48.280;10.970;2023-05-07T04:07:48;9.80;99.90
38568;DHT22;24338;48.280;10.970;2023-05-07T04:10:14;9.80;99.90
38568;DHT22;24338;48.280;10.970;2023-05-07T04:12:41;9.80;99.90
38568;DHT22;24338;48.280;10.970;2023-05-07T04:15:08;9.80;99.90
38568;DHT22;24338;48.280;10.970;2023-05-07T04:17:35;9.80;99.90
38568;DHT22;24338;48.280;10.970;2023-05-07T04:20:03;9.80;99.90
38568;DHT22;24338;48.280;10.970;2023-05-07T04:23:12;9.80;99.90
38568;DHT22;24338;48.280;10.970;2023-05-07T04:30:47;9.70;99.90
38568;DHT22;24338;48.280;10.970;2023-05-07T04:45:52;9.80;99.90
38568;DHT22;24338;48.280;10.970;2023-05-07T05:12:43;10.30;99.90
38568;DHT22;24338;48.280;10.970;2023-05-07T05:16:43;10.40;99.90
38568;DHT22;24338;48.280;10.970;2023-05-07T05:24:08;10.70;99.90
38568;DHT22;24338;48.280;10.970;2023-05-07T05:39:26;11.20;99.90
38568;DHT22;24338;48.280;10.970;2023-05-07T05:47:08;11.40;99.90
38568;DHT22;24338;48.280;10.970;2023-05-07T05:50:37;11.60;99.90
38568;DHT22;24338;48.280;10.970;2023-05-07T05:54:34;11.80;99.90
38568;DHT22;24338;48.280;10.970;2023-05-07T05:58:15;11.90;99.90
38568;DHT22;24338;48.280;10.970;2023-05-07T06:06:24;12.30;99.90
38568;DHT22;24338;48.280;10.970;2023-05-07T06:10:38;12.40;99.90
38568;DHT22;24338;48.280;10.970;2023-05-07T06:14:45;12.60;99.90
38568;DHT22;24338;48.280;10.970;2023-05-07T06:18:14;12.80;99.90
38568;DHT22;24338;48.280;10.970;2023-05-07T06:21:49;12.80;99.90
38568;DHT22;24338;48.280;10.970;2023-05-07T06:24:57;13.00;99.90
38568;DHT22;24338;48.280;10.970;2023-05-07T06:29:00;13.10;99.90
38568;DHT22;24338;48.280;10.970;2023-05-07T06:36:04;13.40;99.90
38568;DHT22;24338;48.280;10.970;2023-05-07T06:38:31;13.70;99.90
38568;DHT22;24338;48.280;10.970;2023-05-07T06:40:58;13.80;99.90
38568;DHT22;24338;48.280;10.970;2023-05-07T06:43:24;13.90;99.90
38568;DHT22;24338;48.280;10.970;2023-05-07T06:45:51;14.00;99.90
38568;DHT22;24338;48.280;10.970;2023-05-07T06:48:18;14.10;99.90
38568;DHT22;24338;48.280;10.970;2023-05-07T06:50:45;14.20;99.90
38568;DHT22;24338;48.280;10.970;2023-05-07T06:53:12;14.30;99.90
38568;DHT22;24338;48.280;10.970;2023-05-07T06:55:39;14.30;99.90
38568;DHT22;24338;48.280;10.970;2023-05-07T06:58:05;14.40;99.90
38568;DHT22;24338;48.280;10.970;2023-05-07T07:00:33;14.50;99.90
38568;DHT22;24338;48.280;10.970;2023-05-07T07:02:59;14.50;99.90
38568;DHT22;24338;48.280;10.970;2023-05-07T07:05:27;14.70;99.90
38568;DHT22;24338;48.280;10.970;2023-05-07T07:07:54;14.90;99.90
38568;DHT22;24338;48.280;10.970;2023-05-07T07:10:21;15.10;99.90
38568;DHT22;24338;48.280;10.970;2023-05-07T07:12:49;15.30;99.90
38568;DHT22;24338;48.280;10.970;2023-05-07T07:15:16;15.40;99.90
38568;DHT22;24338;48.280;10.970;2023-05-07T07:17:43;15.50;99.90
38568;DHT22;24338;48.280;10.970;2023-05-07T07:20:10;15.70;99.90
38568;DHT22;24338;48.280;10.970;2023-05-07T07:22:37;15.90;99.90
38568;DHT22;24338;48.280;10.970;2023-05-07T07:25:05;15.90;99.90
38568;DHT22;24338;48.280;10.970;2023-05-07T07:27:31;16.00;99.90
38568;DHT22;24338;48.280;10.970;2023-05-07T07:29:58;16.10;99.90
38568;DHT22;24338;48.280;10.970;2023-05-07T07:32:25;16.20;99.90
38568;DHT22;24338;48.280;10.970;2023-05-07T07:34:52;16.20;99.90
38568;DHT22;24338;48.280;10.970;2023-05-07T07:37:19;16.30;99.90
38568;DHT22;24338;48.280;10.970;2023-05-07T07:39:46;16.40;99.90
38568;DHT22;24338;48.280;10.970;2023-05-07T07:42:13;16.50;99.90
38568;DHT22;24338;48.280;10.970;2023-05-07T07:44:40;16.60;99.90
38568;DHT22;24338;48.280;10.970;2023-05-07T07:47:07;16.80;99.90
38568;DHT22;24338;48.280;10.970;2023-05-07T07:49:34;17.00;99.90
38568;DHT22;24338;48.280;10.970;2023-05-07T07:52:02;17.10;99.90
38568;DHT22;24338;48.280;10.970;2023-05-07T07:54:42;17.20;99.90
38568;DHT22;24338;48.280;10.970;2023-05-07T07:57:52;17.20;99.90
38568;DHT22;24338;48.280;10.970;2023-05-07T08:01:23;17.40;99.90
38568;DHT22;24338;48.280;10.970;2023-05-07T08:03:55;17.50;99.90
38568;DHT22;24338;48.280;10.970;2023-05-07T08:06:51;17.60;99.90
38568;DHT22;24338;48.280;10.970;2023-05-07T08:09:48;17.80;99.90
38568;DHT22;24338;48.280;10.970;2023-05-07T08:12:37;17.90;99.90
38568;DHT22;24338;48.280;10.970;2023-05-07T08:15:09;18.10;99.90
38568;DHT22;24338;48.280;10.970;2023-05-07T08:17:51;18.20;99.90
38568;DHT22;24338;48.280;10.970;2023-05-07T08:20:22;18.30;99.90
38568;DHT22;24338;48.280;10.970;2023-05-07T08:23:04;18.30;99.90
38568;DHT22;24338;48.280;10.970;2023-05-07T08:26:11;18.40;99.90
38568;DHT22;24338;48.280;10.970;2023-05-07T08:48:16;19.60;99.90
38568;DHT22;24338;48.280;10.970;2023-05-07T09:13:16;20.90;99.90
38568;DHT22;24338;48.280;10.970;2023-05-07T09:38:49;21.40;99.90
38568;DHT22;24338;48.280;10.970;2023-05-07T09:41:52;21.70;99.90
38568;DHT22;24338;48.280;10.970;2023-05-07T09:44:21;21.70;99.90
38568;DHT22;24338;48.280;10.970;2023-05-07T09:46:54;21.50;99.80
38568;DHT22;24338;48.280;10.970;2023-05-07T09:49:23;21.50;99.90
38568;DHT22;24338;48.280;10.970;2023-05-07T09:51:52;21.40;99.20
38568;DHT22;24338;48.280;10.970;2023-05-07T09:54:20;21.30;98.20
38568;DHT22;24338;48.280;10.970;2023-05-07T09:56:48;21.30;99.50
38568;DHT22;24338;48.280;10.970;2023-05-07T09:59:16;21.40;98.60
38568;DHT22;24338;48.280;10.970;2023-05-07T10:01:44;21.60;99.10
38568;DHT22;24338;48.280;10.970;2023-05-07T10:04:12;21.70;97.70
38568;DHT22;24338;48.280;10.970;2023-05-07T10:06:41;22.10;98.60
38568;DHT22;24338;48.280;10.970;2023-05-07T10:09:09;22.30;95.70
38568;DHT22;24338;48.280;10.970;2023-05-07T10:11:37;22.20;95.40
38568;DHT22;24338;48.280;10.970;2023-05-07T10:14:04;22.30;97.90
38568;DHT22;24338;48.280;10.970;2023-05-07T10:16:39;22.40;97.90
38568;DHT22;24338;48.280;10.970;2023-05-07T10:19:10;22.30;95.30
38568;DHT22;24338;48.280;10.970;2023-05-07T10:21:48;22.50;94.90
38568;DHT22;24338;48.280;10.970;2023-05-07T10:24:36;22.60;92.20
38568;DHT22;24338;48.280;10.970;2023-05-07T10:27:12;22.80;94.00
38568;DHT22;24338;48.280;10.970;2023-05-07T10:32:42;22.80;90.20
38568;DHT22;24338;48.280;10.970;2023-05-07T10:35:17;23.20;89.90
38568;DHT22;24338;48.280;10.970;2023-05-07T10:37:46;23.10;85.10
38568;DHT22;24338;48.280;10.970;2023-05-07T10:40:13;23.50;89.70
38568;DHT22;24338;48.280;10.970;2023-05-07T10:42:56;23.60;90.00
38568;DHT22;24338;48.280;10.970;2023-05-07T10:45:25;23.90;84.10
38568;DHT22;24338;48.280;10.970;2023-05-07T10:51:20;24.10;84.60
38568;DHT22;24338;48.280;10.970;2023-05-07T10:53:48;24.10;85.90
38568;DHT22;24338;48.280;10.970;2023-05-07T10:58:48;23.80;82.50
38568;DHT22;24338;48.280;10.970;2023-05-07T11:01:14;23.70;82.40
38568;DHT22;24338;48.280;10.970;2023-05-07T11:04:17;23.90;78.40
38568;DHT22;24338;48.280;10.970;2023-05-07T11:09:58;23.70;78.60
38568;DHT22;24338;48.280;10.970;2023-05-07T11:15:12;23.80;78.30
38568;DHT22;24338;48.280;10.970;2023-05-07T11:17:57;23.80;78.50
38568;DHT22;24338;48.280;10.970;2023-05-07T11:26:09;23.80;77.60
38568;DHT22;24338;48.280;10.970;2023-05-07T11:28:43;24.00;81.50
38568;DHT22;24338;48.280;10.970;2023-05-07T11:31:12;24.00;75.90
38568;DHT22;24338;48.280;10.970;2023-05-07T11:33:39;23.90;77.50
38568;DHT22;24338;48.280;10.970;2023-05-07T11:36:08;24.20;78.70
38568;DHT22;24338;48.280;10.970;2023-05-07T11:38:40;24.20;76.30
38568;DHT22;24338;48.280;10.970;2023-05-07T11:41:36;24.10;72.50
38568;DHT22;24338;48.280;10.970;2023-05-07T11:44:03;23.90;76.50
38568;DHT22;24338;48.280;10.970;2023-05-07T11:46:30;24.10;74.20
38568;DHT22;24338;48.280;10.970;2023-05-07T11:49:00;24.20;74.90
38568;DHT22;24338;48.280;10.970;2023-05-07T11:51:27;24.50;78.90
38568;DHT22;24338;48.280;10.970;2023-05-07T11:53:54;24.70;72.10
38568;DHT22;24338;48.280;10.970;2023-05-07T11:56:21;24.70;69.50
38568;DHT22;24338;48.280;10.970;2023-05-07T11:58:48;24.50;73.10
38568;DHT22;24338;48.280;10.970;2023-05-07T12:01:15;24.10;74.20
38568;DHT22;24338;48.280;10.970;2023-05-07T12:03:44;24.10;72.80
38568;DHT22;24338;48.280;10.970;2023-05-07T12:06:15;24.00;71.90
38568;DHT22;24338;48.280;10.970;2023-05-07T12:08:43;23.80;74.10
38568;DHT22;24338;48.280;10.970;2023-05-07T12:11:14;24.00;73.70
38568;DHT22;24338;48.280;10.970;2023-05-07T12:13:42;24.00;72.60
38568;DHT22;24338;48.280;10.970;2023-05-07T12:16:10;24.10;74.00
38568;DHT22;24338;48.280;10.970;2023-05-07T12:18:37;24.00;71.90
38568;DHT22;24338;48.280;10.970;2023-05-07T12:21:05;23.60;72.30
38568;DHT22;24338;48.280;10.970;2023-05-07T12:23:37;23.30;72.70
38568;DHT22;24338;48.280;10.970;2023-05-07T12:26:05;23.40;75.60
38568;DHT22;24338;48.280;10.970;2023-05-07T12:28:37;23.50;74.00
38568;DHT22;24338;48.280;10.970;2023-05-07T12:31:07;23.70;78.60
38568;DHT22;24338;48.280;10.970;2023-05-07T12:33:35;23.70;74.50
38568;DHT22;24338;48.280;10.970;2023-05-07T12:36:05;23.70;75.90
38568;DHT22;24338;48.280;10.970;2023-05-07T12:38:35;23.30;76.50
38568;DHT22;24338;48.280;10.970;2023-05-07T12:41:05;23.30;74.80
38568;DHT22;24338;48.280;10.970;2023-05-07T12:43:34;23.30;77.50
38568;DHT22;24338;48.280;10.970;2023-05-07T12:46:04;23.50;78.00
38568;DHT22;24338;48.280;10.970;2023-05-07T12:51:01;23.30;76.40
38568;DHT22;24338;48.280;10.970;2023-05-07T12:53:30;23.30;78.20
38568;DHT22;24338;48.280;10.970;2023-05-07T12:55:58;23.50;75.90
38568;DHT22;24338;48.280;10.970;2023-05-07T13:00:54;23.30;75.60
38568;DHT22;24338;48.280;10.970;2023-05-07T13:03:34;23.40;76.40
38568;DHT22;24338;48.280;10.970;2023-05-07T13:06:09;23.40;77.80
38568;DHT22;24338;48.280;10.970;2023-05-07T13:08:39;23.60;72.90
38568;DHT22;24338;48.280;10.970;2023-05-07T13:11:10;23.70;72.30
38568;DHT22;24338;48.280;10.970;2023-05-07T13:13:39;23.90;76.90
38568;DHT22;24338;48.280;10.970;2023-05-07T13:16:08;24.00;76.90
38568;DHT22;24338;48.280;10.970;2023-05-07T13:18:37;24.30;73.90
38568;DHT22;24338;48.280;10.970;2023-05-07T13:21:04;24.30;76.60
38568;DHT22;24338;48.280;10.970;2023-05-07T13:23:31;24.50;74.90
38568;DHT22;24338;48.280;10.970;2023-05-07T13:25:58;24.70;74.30
38568;DHT22;24338;48.280;10.970;2023-05-07T13:28:29;24.20;75.40
38568;DHT22;24338;48.280;10.970;2023-05-07T13:30:56;24.10;79.60
38568;DHT22;24338;48.280;10.970;2023-05-07T13:33:23;24.10;77.30
38568;DHT22;24338;48.280;10.970;2023-05-07T13:35:52;24.00;76.90
38568;DHT22;24338;48.280;10.970;2023-05-07T13:38:19;24.20;77.70
38568;DHT22;24338;48.280;10.970;2023-05-07T13:40:48;24.20;76.30
38568;DHT22;24338;48.280;10.970;2023-05-07T13:43:15;24.00;76.50
38568;DHT22;24338;48.280;10.970;2023-05-07T13:45:44;23.80;76.00
38568;DHT22;24338;48.280;10.970;2023-05-07T13:48:11;23.60;79.10
38568;DHT22;24338;48.280;10.970;2023-05-07T13:50:37;24.00;77.40
38568;DHT22;24338;48.280;10.970;2023-05-07T13:53:04;24.10;77.30
38568;DHT22;24338;48.280;10.970;2023-05-07T13:55:31;24.20;77.80
38568;DHT22;24338;48.280;10.970;2023-05-07T13:58:00;24.20;77.00
38568;DHT22;24338;48.280;10.970;2023-05-07T14:00:28;24.00;77.00
38568;DHT22;24338;48.280;10.970;2023-05-07T14:02:56;24.10;78.60
38568;DHT22;24338;48.280;10.970;2023-05-07T14:05:23;24.20;78.20
38568;DHT22;24338;48.280;10.970;2023-05-07T14:07:51;24.20;76.60
38568;DHT22;24338;48.280;10.970;2023-05-07T14:10:20;23.90;77.80
38568;DHT22;24338;48.280;10.970;2023-05-07T14:12:54;23.80;80.80
38568;DHT22;24338;48.280;10.970;2023-05-07T14:15:21;23.80;80.10
38568;DHT22;24338;48.280;10.970;2023-05-07T14:17:48;23.40;81.30
38568;DHT22;24338;48.280;10.970;2023-05-07T14:20:15;23.40;82.00
38568;DHT22;24338;48.280;10.970;2023-05-07T14:22:42;23.60;84.20
38568;DHT22;24338;48.280;10.970;2023-05-07T14:25:09;23.80;83.80
38568;DHT22;24338;48.280;10.970;2023-05-07T14:27:40;23.70;80.60
38568;DHT22;24338;48.280;10.970;2023-05-07T14:30:26;23.80;83.30
38568;DHT22;24338;48.280;10.970;2023-05-07T14:32:53;23.70;82.80
38568;DHT22;24338;48.280;10.970;2023-05-07T14:35:20;23.80;85.40
38568;DHT22;24338;48.280;10.970;2023-05-07T14:38:17;23.50;81.70
38568;DHT22;24338;48.280;10.970;2023-05-07T14:40:53;23.30;83.30
38568;DHT22;24338;48.280;10.970;2023-05-07T14:43:34;23.20;85.50
38568;DHT22;24338;48.280;10.970;2023-05-07T14:46:27;23.00;88.40
38568;DHT22;24338;48.280;10.970;2023-05-07T14:48:54;22.70;88.10
38568;DHT22;24338;48.280;10.970;2023-05-07T14:51:21;22.40;85.60
38568;DHT22;24338;48.280;10.970;2023-05-07T14:53:49;22.40;90.10
38568;DHT22;24338;48.280;10.970;2023-05-07T14:56:16;22.50;89.10
38568;DHT22;24338;48.280;10.970;2023-05-07T14:58:45;22.70;87.90
38568;DHT22;24338;48.280;10.970;2023-05-07T15:01:13;22.70;90.40
38568;DHT22;24338;48.280;10.970;2023-05-07T15:03:41;22.80;90.70
38568;DHT22;24338;48.280;10.970;2023-05-07T15:06:24;22.70;88.70
38568;DHT22;24338;48.280;10.970;2023-05-07T15:16:20;21.80;90.30
38568;DHT22;24338;48.280;10.970;2023-05-07T15:18:47;21.80;90.20
38568;DHT22;24338;48.280;10.970;2023-05-07T15:25:00;21.60;92.20
38568;DHT22;24338;48.280;10.970;2023-05-07T15:27:30;21.40;91.30
38568;DHT22;24338;48.280;10.970;2023-05-07T15:29:57;21.50;91.20
38568;DHT22;24338;48.280;10.970;2023-05-07T15:32:24;21.40;92.00
38568;DHT22;24338;48.280;10.970;2023-05-07T15:34:51;21.40;91.70
38568;DHT22;24338;48.280;10.970;2023-05-07T15:37:18;21.30;91.90
38568;DHT22;24338;48.280;10.970;2023-05-07T15:39:45;21.30;91.40
38568;DHT22;24338;48.280;10.970;2023-05-07T15:42:13;21.30;92.50
38568;DHT22;24338;48.280;10.970;2023-05-07T15:44:41;21.10;91.30
38568;DHT22;24338;48.280;10.970;2023-05-07T15:47:08;21.10;93.60
38568;DHT22;24338;48.280;10.970;2023-05-07T15:49:35;21.20;94.50
38568;DHT22;24338;48.280;10.970;2023-05-07T15:52:02;21.10;94.50
38568;DHT22;24338;48.280;10.970;2023-05-07T15:54:29;21.10;95.30
38568;DHT22;24338;48.280;10.970;2023-05-07T15:56:56;21.10;94.90
38568;DHT22;24338;48.280;10.970;2023-05-07T15:59:23;20.90;94.70
38568;DHT22;24338;48.280;10.970;2023-05-07T16:01:50;20.90;93.70
38568;DHT22;24338;48.280;10.970;2023-05-07T16:04:18;20.70;93.70
38568;DHT22;24338;48.280;10.970;2023-05-07T16:06:45;20.60;94.50
38568;DHT22;24338;48.280;10.970;2023-05-07T16:09:13;20.50;95.60
38568;DHT22;24338;48.280;10.970;2023-05-07T16:11:40;20.50;95.70
38568;DHT22;24338;48.280;10.970;2023-05-07T16:14:07;20.50;95.80
38568;DHT22;24338;48.280;10.970;2023-05-07T16:16:35;20.40;96.70
38568;DHT22;24338;48.280;10.970;2023-05-07T16:19:03;20.20;96.10
38568;DHT22;24338;48.280;10.970;2023-05-07T16:21:31;20.30;97.20
38568;DHT22;24338;48.280;10.970;2023-05-07T16:23:58;20.30;97.30
38568;DHT22;24338;48.280;10.970;2023-05-07T16:26:25;20.20;95.80
38568;DHT22;24338;48.280;10.970;2023-05-07T16:28:52;20.10;95.70
38568;DHT22;24338;48.280;10.970;2023-05-07T16:31:19;19.90;97.00
38568;DHT22;24338;48.280;10.970;2023-05-07T16:33:46;19.90;97.30
38568;DHT22;24338;48.280;10.970;2023-05-07T16:36:12;19.90;97.00
38568;DHT22;24338;48.280;10.970;2023-05-07T16:38:40;19.70;97.80
38568;DHT22;24338;48.280;10.970;2023-05-07T16:41:07;19.60;98.30
38568;DHT22;24338;48.280;10.970;2023-05-07T16:43:33;19.50;98.70
38568;DHT22;24338;48.280;10.970;2023-05-07T16:46:00;19.60;99.40
38568;DHT22;24338;48.280;10.970;2023-05-07T16:48:27;19.50;99.50
38568;DHT22;24338;48.280;10.970;2023-05-07T16:50:54;19.50;99.70
38568;DHT22;24338;48.280;10.970;2023-05-07T16:53:21;19.40;99.90
38568;DHT22;24338;48.280;10.970;2023-05-07T16:55:48;19.40;99.90
38568;DHT22;24338;48.280;10.970;2023-05-07T16:58:15;19.40;99.90
38568;DHT22;24338;48.280;10.970;2023-05-07T17:00:41;19.30;99.90
38568;DHT22;24338;48.280;10.970;2023-05-07T17:03:16;19.30;99.90
38568;DHT22;24338;48.280;10.970;2023-05-07T17:05:44;19.30;99.90
38568;DHT22;24338;48.280;10.970;2023-05-07T17:08:11;19.20;99.90
38568;DHT22;24338;48.280;10.970;2023-05-07T17:10:40;19.20;99.90
38568;DHT22;24338;48.280;10.970;2023-05-07T17:13:07;19.10;99.90
38568;DHT22;24338;48.280;10.970;2023-05-07T17:15:34;19.10;99.90
38568;DHT22;24338;48.280;10.970;2023-05-07T17:18:01;19.00;99.90
38568;DHT22;24338;48.280;10.970;2023-05-07T17:20:27;19.00;99.90
38568;DHT22;24338;48.280;10.970;2023-05-07T17:22:54;19.00;99.90
38568;DHT22;24338;48.280;10.970;2023-05-07T17:25:22;19.00;99.90
38568;DHT22;24338;48.280;10.970;2023-05-07T17:27:49;18.90;99.90
38568;DHT22;24338;48.280;10.970;2023-05-07T17:30:16;18.80;99.90
38568;DHT22;24338;48.280;10.970;2023-05-07T17:32:43;18.80;99.90
38568;DHT22;24338;48.280;10.970;2023-05-07T17:35:10;18.70;99.90
38568;DHT22;24338;48.280;10.970;2023-05-07T17:37:37;18.70;99.90
38568;DHT22;24338;48.280;10.970;2023-05-07T17:40:04;18.60;99.90
38568;DHT22;24338;48.280;10.970;2023-05-07T17:42:34;18.60;99.90
38568;DHT22;24338;48.280;10.970;2023-05-07T17:45:01;18.60;99.90
38568;DHT22;24338;48.280;10.970;2023-05-07T17:47:28;18.50;99.90
38568;DHT22;24338;48.280;10.970;2023-05-07T17:49:55;18.40;99.90
38568;DHT22;24338;48.280;10.970;2023-05-07T17:52:21;18.40;99.90
38568;DHT22;24338;48.280;10.970;2023-05-07T17:54:49;18.40;99.90
38568;DHT22;24338;48.280;10.970;2023-05-07T17:57:16;18.30;99.90
38568;DHT22;24338;48.280;10.970;2023-05-07T17:59:43;18.30;99.90
38568;DHT22;24338;48.280;10.970;2023-05-07T18:02:10;18.10;99.90
38568;DHT22;24338;48.280;10.970;2023-05-07T18:04:36;18.10;99.90
38568;DHT22;24338;48.280;10.970;2023-05-07T18:07:03;18.10;99.90
38568;DHT22;24338;48.280;10.970;2023-05-07T18:09:30;18.00;99.90
38568;DHT22;24338;48.280;10.970;2023-05-07T18:11:57;17.90;99.90
38568;DHT22;24338;48.280;10.970;2023-05-07T18:14:24;17.90;99.90
38568;DHT22;24338;48.280;10.970;2023-05-07T18:16:51;17.90;99.90
38568;DHT22;24338;48.280;10.970;2023-05-07T18:19:19;17.80;99.90
38568;DHT22;24338;48.280;10.970;2023-05-07T18:21:49;17.80;99.90
38568;DHT22;24338;48.280;10.970;2023-05-07T18:24:16;17.70;99.90
38568;DHT22;24338;48.280;10.970;2023-05-07T18:26:42;17.70;99.90
38568;DHT22;24338;48.280;10.970;2023-05-07T18:29:09;17.70;99.90
38568;DHT22;24338;48.280;10.970;2023-05-07T18:31:36;17.70;99.90
38568;DHT22;24338;48.280;10.970;2023-05-07T18:34:04;17.60;99.90
38568;DHT22;24338;48.280;10.970;2023-05-07T18:37:02;17.60;99.90
38568;DHT22;24338;48.280;10.970;2023-05-07T18:39:33;17.50;99.90
38568;DHT22;24338;48.280;10.970;2023-05-07T18:42:00;17.50;99.90